sensor_id;sensor_type;location;lat;lon;timestamp;P1;durP1;ratioP1;P2;durP2;ratioP2
5604;SDS011;9297;47.258;11.362;2024-03-08T02:34:55;15.80;;;11.10;;
5604;SDS011;9297;47.258;11.362;2024-03-08T02:37:22;17.30;;;12.07;;
5604;SDS011;9297;47.258;11.362;2024-03-08T02:39:49;16.60;;;11.13;;
5604;SDS011;9297;47.258;11.362;2024-03-08T02:42:16;15.93;;;10.60;;
5604;SDS011;9297;47.258;11.362;2024-03-08T02:44:43;18.10;;;10.27;;
5604;SDS011;9297;47.258;11.362;2024-03-08T02:47:10;16.20;;;10.87;;
5604;SDS011;9297;47.258;11.362;2024-03-08T02:49:37;16.80;;;10.50;;
5604;SDS011;9297;47.258;11.362;2024-03-08T02:52:06;15.63;;;10.60;;
5604;SDS011;9297;47.258;11.362;2024-03-08T02:54:33;16.10;;;10.40;;
5604;SDS011;9297;47.258;11.362;2024-03-08T02:57:00;19.13;;;11.20;;
5604;SDS011;9297;47.258;11.362;2024-03-08T02:59:27;18.03;;;10.20;;
5604;SDS011;9297;47.258;11.362;2024-03-08T03:01:54;15.40;;;10.97;;
5604;SDS011;9297;47.258;11.362;2024-03-08T03:04:21;18.13;;;10.93;;
5604;SDS011;9297;47.258;11.362;2024-03-08T03:06:48;16.83;;;11.40;;
5604;SDS011;9297;47.258;11.362;2024-03-08T03:09:16;17.37;;;10.23;;
5604;SDS011;9297;47.258;11.362;2024-03-08T03:11:44;19.67;;;10.80;;
5604;SDS011;9297;47.258;11.362;2024-03-08T03:14:11;16.87;;;10.77;;
5604;SDS011;9297;47.258;11.362;2024-03-08T03:16:38;15.97;;;9.60;;
5604;SDS011;9297;47.258;11.362;2024-03-08T03:19:04;16.10;;;10.00;;
5604;SDS011;9297;47.258;11.362;2024-03-08T03:21:32;13.47;;;9.67;;
5604;SDS011;9297;47.258;11.362;2024-03-08T03:23:59;16.77;;;10.57;;
5604;SDS011;9297;47.258;11.362;2024-03-08T03:26:27;15.60;;;9.83;;
5604;SDS011;9297;47.258;11.362;2024-03-08T03:28:54;12.80;;;9.07;;
5604;SDS011;9297;47.258;11.362;2024-03-08T03:31:21;15.20;;;9.70;;
5604;SDS011;9297;47.258;11.362;2024-03-08T03:33:48;13.47;;;9.67;;
5604;SDS011;9297;47.258;11.362;2024-03-08T03:36:15;17.53;;;10.80;;
5604;SDS011;9297;47.258;11.362;2024-03-08T03:38:42;13.37;;;9.60;;
5604;SDS011;9297;47.258;11.362;2024-03-08T03:41:10;13.97;;;9.33;;
5604;SDS011;9297;47.258;11.362;2024-03-08T03:43:38;16.20;;;10.57;;
5604;SDS011;9297;47.258;11.362;2024-03-08T03:46:06;15.30;;;10.57;;
5604;SDS011;9297;47.258;11.362;2024-03-08T03:48:33;12.53;;;9.43;;
5604;SDS011;9297;47.258;11.362;2024-03-08T03:51:00;14.80;;;10.40;;
5604;SDS011;9297;47.258;11.362;2024-03-08T03:53:27;16.47;;;10.40;;
5604;SDS011;9297;47.258;11.362;2024-03-08T03:55:54;14.37;;;9.23;;
5604;SDS011;9297;47.258;11.362;2024-03-08T03:58:21;15.77;;;10.13;;
5604;SDS011;9297;47.258;11.362;2024-03-08T04:00:49;14.40;;;8.73;;
5604;SDS011;9297;47.258;11.362;2024-03-08T04:03:17;13.47;;;8.83;;
5604;SDS011;9297;47.258;11.362;2024-03-08T04:05:44;14.30;;;9.47;;
5604;SDS011;9297;47.258;11.362;2024-03-08T04:08:12;12.20;;;9.70;;
5604;SDS011;9297;47.258;11.362;2024-03-08T04:10:39;15.07;;;10.03;;
5604;SDS011;9297;47.258;11.362;2024-03-08T04:13:07;13.70;;;9.97;;
5604;SDS011;9297;47.258;11.362;2024-03-08T04:15:33;14.17;;;9.03;;
5604;SDS011;9297;47.258;11.362;2024-03-08T04:18:02;16.00;;;9.10;;
5604;SDS011;9297;47.258;11.362;2024-03-08T04:20:29;13.53;;;9.63;;
5604;SDS011;9297;47.258;11.362;2024-03-08T04:22:56;17.40;;;11.07;;
5604;SDS011;9297;47.258;11.362;2024-03-08T04:25:23;15.77;;;10.23;;
5604;SDS011;9297;47.258;11.362;2024-03-08T04:27:50;14.43;;;10.07;;
5604;SDS011;9297;47.258;11.362;2024-03-08T04:30:17;16.27;;;10.83;;
5604;SDS011;9297;47.258;11.362;2024-03-08T04:32:44;13.57;;;9.80;;
5604;SDS011;9297;47.258;11.362;2024-03-08T04:35:13;12.10;;;9.23;;
5604;SDS011;9297;47.258;11.362;2024-03-08T04:37:40;14.97;;;9.50;;
5604;SDS011;9297;47.258;11.362;2024-03-08T04:40:07;13.83;;;9.40;;
5604;SDS011;9297;47.258;11.362;2024-03-08T04:42:34;16.23;;;10.20;;
5604;SDS011;9297;47.258;11.362;2024-03-08T04:45:03;12.93;;;9.73;;
5604;SDS011;9297;47.258;11.362;2024-03-08T04:47:31;14.50;;;9.27;;
5604;SDS011;9297;47.258;11.362;2024-03-08T04:49:58;11.50;;;8.90;;
5604;SDS011;9297;47.258;11.362;2024-03-08T04:52:26;14.07;;;9.90;;
5604;SDS011;9297;47.258;11.362;2024-03-08T04:54:53;15.97;;;10.00;;
5604;SDS011;9297;47.258;11.362;2024-03-08T04:57:20;16.57;;;10.47;;
5604;SDS011;9297;47.258;11.362;2024-03-08T04:59:47;14.00;;;9.97;;
5604;SDS011;9297;47.258;11.362;2024-03-08T05:02:14;14.33;;;9.67;;
5604;SDS011;9297;47.258;11.362;2024-03-08T05:04:42;14.33;;;8.93;;
5604;SDS011;9297;47.258;11.362;2024-03-08T05:07:09;12.30;;;8.57;;
5604;SDS011;9297;47.258;11.362;2024-03-08T05:09:38;16.67;;;9.83;;
5604;SDS011;9297;47.258;11.362;2024-03-08T05:12:05;16.37;;;9.90;;
5604;SDS011;9297;47.258;11.362;2024-03-08T05:14:32;16.10;;;10.57;;
5604;SDS011;9297;47.258;11.362;2024-03-08T05:17:00;15.67;;;10.47;;
5604;SDS011;9297;47.258;11.362;2024-03-08T05:19:27;14.40;;;10.30;;
5604;SDS011;9297;47.258;11.362;2024-03-08T05:21:56;17.70;;;11.47;;
5604;SDS011;9297;47.258;11.362;2024-03-08T05:24:23;15.17;;;9.90;;
5604;SDS011;9297;47.258;11.362;2024-03-08T05:26:52;15.90;;;10.60;;
5604;SDS011;9297;47.258;11.362;2024-03-08T05:29:19;17.03;;;10.40;;
5604;SDS011;9297;47.258;11.362;2024-03-08T05:31:46;16.27;;;10.57;;
5604;SDS011;9297;47.258;11.362;2024-03-08T05:34:14;14.50;;;9.33;;
5604;SDS011;9297;47.258;11.362;2024-03-08T05:36:41;13.53;;;10.40;;
5604;SDS011;9297;47.258;11.362;2024-03-08T05:39:08;13.77;;;8.97;;
5604;SDS011;9297;47.258;11.362;2024-03-08T05:41:39;12.77;;;8.93;;
5604;SDS011;9297;47.258;11.362;2024-03-08T05:44:08;14.63;;;9.80;;
5604;SDS011;9297;47.258;11.362;2024-03-08T05:46:35;12.63;;;9.17;;
5604;SDS011;9297;47.258;11.362;2024-03-08T05:49:03;11.67;;;8.83;;
5604;SDS011;9297;47.258;11.362;2024-03-08T05:51:30;12.53;;;8.40;;
5604;SDS011;9297;47.258;11.362;2024-03-08T05:53:57;12.77;;;9.03;;
5604;SDS011;9297;47.258;11.362;2024-03-08T05:56:24;10.80;;;8.07;;
5604;SDS011;9297;47.258;11.362;2024-03-08T05:58:51;11.73;;;8.20;;
5604;SDS011;9297;47.258;11.362;2024-03-08T06:01:19;12.07;;;7.40;;
5604;SDS011;9297;47.258;11.362;2024-03-08T06:03:46;8.97;;;5.17;;
5604;SDS011;9297;47.258;11.362;2024-03-08T06:06:13;13.83;;;8.10;;
5604;SDS011;9297;47.258;11.362;2024-03-08T06:08:42;13.33;;;8.20;;
5604;SDS011;9297;47.258;11.362;2024-03-08T06:11:09;10.63;;;6.27;;
5604;SDS011;9297;47.258;11.362;2024-03-08T06:13:39;7.57;;;5.47;;
5604;SDS011;9297;47.258;11.362;2024-03-08T06:16:06;11.07;;;5.90;;
5604;SDS011;9297;47.258;11.362;2024-03-08T06:18:35;8.77;;;6.10;;
5604;SDS011;9297;47.258;11.362;2024-03-08T06:21:02;11.40;;;7.50;;
5604;SDS011;9297;47.258;11.362;2024-03-08T06:23:29;10.40;;;7.47;;
5604;SDS011;9297;47.258;11.362;2024-03-08T06:25:56;12.17;;;7.37;;
5604;SDS011;9297;47.258;11.362;2024-03-08T06:28:23;14.70;;;7.37;;
5604;SDS011;9297;47.258;11.362;2024-03-08T06:30:50;11.23;;;7.53;;
5604;SDS011;9297;47.258;11.362;2024-03-08T06:33:17;13.33;;;7.73;;
5604;SDS011;9297;47.258;11.362;2024-03-08T06:35:46;10.50;;;7.57;;
5604;SDS011;9297;47.258;11.362;2024-03-08T06:38:13;12.87;;;8.17;;
5604;SDS011;9297;47.258;11.362;2024-03-08T06:40:43;10.30;;;7.80;;
5604;SDS011;9297;47.258;11.362;2024-03-08T06:43:10;11.47;;;8.20;;
5604;SDS011;9297;47.258;11.362;2024-03-08T06:45:37;11.87;;;7.63;;
5604;SDS011;9297;47.258;11.362;2024-03-08T06:48:06;8.70;;;7.03;;
5604;SDS011;9297;47.258;11.362;2024-03-08T06:50:34;9.83;;;7.07;;
5604;SDS011;9297;47.258;11.362;2024-03-08T06:53:02;9.90;;;7.20;;
5604;SDS011;9297;47.258;11.362;2024-03-08T06:55:29;12.63;;;7.87;;
5604;SDS011;9297;47.258;11.362;2024-03-08T06:57:56;12.23;;;7.40;;
5604;SDS011;9297;47.258;11.362;2024-03-08T07:00:23;12.03;;;7.90;;
5604;SDS011;9297;47.258;11.362;2024-03-08T07:02:50;14.90;;;8.80;;
5604;SDS011;9297;47.258;11.362;2024-03-08T07:05:17;11.47;;;7.57;;
5604;SDS011;9297;47.258;11.362;2024-03-08T07:07:45;11.00;;;7.87;;
5604;SDS011;9297;47.258;11.362;2024-03-08T07:10:13;10.90;;;6.53;;
5604;SDS011;9297;47.258;11.362;2024-03-08T07:12:40;14.63;;;9.00;;
5604;SDS011;9297;47.258;11.362;2024-03-08T07:15:07;11.50;;;7.77;;
5604;SDS011;9297;47.258;11.362;2024-03-08T07:17:35;12.23;;;8.00;;
5604;SDS011;9297;47.258;11.362;2024-03-08T07:20:02;13.60;;;8.27;;
5604;SDS011;9297;47.258;11.362;2024-03-08T07:22:29;12.47;;;7.53;;
5604;SDS011;9297;47.258;11.362;2024-03-08T07:24:56;9.57;;;7.67;;
5604;SDS011;9297;47.258;11.362;2024-03-08T07:27:24;12.37;;;7.80;;
5604;SDS011;9297;47.258;11.362;2024-03-08T07:29:51;15.70;;;9.27;;
5604;SDS011;9297;47.258;11.362;2024-03-08T07:32:34;15.30;;;9.37;;
5604;SDS011;9297;47.258;11.362;2024-03-08T07:35:01;14.90;;;9.97;;
5604;SDS011;9297;47.258;11.362;2024-03-08T07:37:28;13.40;;;9.10;;
5604;SDS011;9297;47.258;11.362;2024-03-08T07:39:55;13.37;;;8.07;;
5604;SDS011;9297;47.258;11.362;2024-03-08T07:42:22;13.57;;;9.10;;
5604;SDS011;9297;47.258;11.362;2024-03-08T07:44:50;15.37;;;9.33;;
5604;SDS011;9297;47.258;11.362;2024-03-08T07:47:17;14.40;;;9.40;;
5604;SDS011;9297;47.258;11.362;2024-03-08T07:49:48;15.57;;;10.03;;
5604;SDS011;9297;47.258;11.362;2024-03-08T07:52:15;14.77;;;9.87;;
5604;SDS011;9297;47.258;11.362;2024-03-08T07:54:42;19.53;;;11.97;;
5604;SDS011;9297;47.258;11.362;2024-03-08T07:57:09;20.50;;;12.20;;
5604;SDS011;9297;47.258;11.362;2024-03-08T07:59:36;18.90;;;11.63;;
5604;SDS011;9297;47.258;11.362;2024-03-08T08:02:04;19.97;;;11.23;;
5604;SDS011;9297;47.258;11.362;2024-03-08T08:04:31;17.43;;;11.00;;
5604;SDS011;9297;47.258;11.362;2024-03-08T08:06:58;20.17;;;11.57;;
5604;SDS011;9297;47.258;11.362;2024-03-08T08:09:26;17.17;;;11.40;;
5604;SDS011;9297;47.258;11.362;2024-03-08T08:11:53;19.50;;;12.57;;
5604;SDS011;9297;47.258;11.362;2024-03-08T08:14:20;20.50;;;13.17;;
5604;SDS011;9297;47.258;11.362;2024-03-08T08:16:47;23.17;;;13.53;;
5604;SDS011;9297;47.258;11.362;2024-03-08T08:19:15;21.90;;;14.30;;
5604;SDS011;9297;47.258;11.362;2024-03-08T08:21:42;24.60;;;14.20;;
5604;SDS011;9297;47.258;11.362;2024-03-08T08:24:09;27.37;;;13.93;;
5604;SDS011;9297;47.258;11.362;2024-03-08T08:26:36;22.90;;;13.33;;
5604;SDS011;9297;47.258;11.362;2024-03-08T08:29:06;26.83;;;14.53;;
5604;SDS011;9297;47.258;11.362;2024-03-08T08:31:33;20.63;;;12.57;;
5604;SDS011;9297;47.258;11.362;2024-03-08T08:34:00;20.43;;;11.67;;
5604;SDS011;9297;47.258;11.362;2024-03-08T08:36:28;18.33;;;11.47;;
5604;SDS011;9297;47.258;11.362;2024-03-08T08:38:55;18.27;;;10.47;;
5604;SDS011;9297;47.258;11.362;2024-03-08T08:41:22;15.97;;;10.13;;
5604;SDS011;9297;47.258;11.362;2024-03-08T08:43:49;16.00;;;9.53;;
5604;SDS011;9297;47.258;11.362;2024-03-08T08:46:33;13.27;;;8.87;;
5604;SDS011;9297;47.258;11.362;2024-03-08T08:49:00;13.57;;;8.70;;
5604;SDS011;9297;47.258;11.362;2024-03-08T08:51:28;15.97;;;9.50;;
5604;SDS011;9297;47.258;11.362;2024-03-08T08:53:55;15.23;;;9.53;;
5604;SDS011;9297;47.258;11.362;2024-03-08T08:56:22;16.40;;;10.10;;
5604;SDS011;9297;47.258;11.362;2024-03-08T08:58:49;19.17;;;9.80;;
5604;SDS011;9297;47.258;11.362;2024-03-08T09:01:16;16.47;;;9.77;;
5604;SDS011;9297;47.258;11.362;2024-03-08T09:03:43;17.17;;;10.30;;
5604;SDS011;9297;47.258;11.362;2024-03-08T09:06:10;17.00;;;10.50;;
5604;SDS011;9297;47.258;11.362;2024-03-08T09:08:39;17.30;;;8.93;;
5604;SDS011;9297;47.258;11.362;2024-03-08T09:11:06;14.73;;;9.17;;
5604;SDS011;9297;47.258;11.362;2024-03-08T09:13:33;14.97;;;9.37;;
5604;SDS011;9297;47.258;11.362;2024-03-08T09:16:01;16.30;;;9.33;;
5604;SDS011;9297;47.258;11.362;2024-03-08T09:18:29;8.43;;;5.33;;
5604;SDS011;9297;47.258;11.362;2024-03-08T09:20:56;7.17;;;4.20;;
5604;SDS011;9297;47.258;11.362;2024-03-08T09:23:23;7.83;;;4.60;;
5604;SDS011;9297;47.258;11.362;2024-03-08T09:25:51;6.73;;;4.93;;
5604;SDS011;9297;47.258;11.362;2024-03-08T09:28:18;5.60;;;3.97;;
5604;SDS011;9297;47.258;11.362;2024-03-08T09:30:45;5.20;;;3.60;;
5604;SDS011;9297;47.258;11.362;2024-03-08T09:33:24;4.97;;;3.37;;
5604;SDS011;9297;47.258;11.362;2024-03-08T09:35:51;6.23;;;3.37;;
5604;SDS011;9297;47.258;11.362;2024-03-08T09:38:18;5.40;;;3.53;;
5604;SDS011;9297;47.258;11.362;2024-03-08T09:40:45;5.43;;;3.67;;
5604;SDS011;9297;47.258;11.362;2024-03-08T09:43:14;6.13;;;3.50;;
5604;SDS011;9297;47.258;11.362;2024-03-08T09:45:41;4.17;;;3.13;;
5604;SDS011;9297;47.258;11.362;2024-03-08T09:48:09;4.30;;;3.10;;
5604;SDS011;9297;47.258;11.362;2024-03-08T09:50:37;4.50;;;3.60;;
5604;SDS011;9297;47.258;11.362;2024-03-08T09:53:04;3.93;;;3.30;;
5604;SDS011;9297;47.258;11.362;2024-03-08T09:55:31;3.77;;;3.30;;
5604;SDS011;9297;47.258;11.362;2024-03-08T09:57:58;4.73;;;3.23;;
5604;SDS011;9297;47.258;11.362;2024-03-08T10:00:29;4.43;;;2.87;;
5604;SDS011;9297;47.258;11.362;2024-03-08T10:03:00;5.40;;;3.03;;
5604;SDS011;9297;47.258;11.362;2024-03-08T10:05:27;4.07;;;2.80;;
5604;SDS011;9297;47.258;11.362;2024-03-08T10:07:54;3.20;;;2.80;;
5604;SDS011;9297;47.258;11.362;2024-03-08T10:10:21;4.00;;;2.30;;
5604;SDS011;9297;47.258;11.362;2024-03-08T10:12:48;2.57;;;1.90;;
5604;SDS011;9297;47.258;11.362;2024-03-08T10:15:15;2.73;;;2.20;;
5604;SDS011;9297;47.258;11.362;2024-03-08T10:17:44;3.03;;;2.00;;
5604;SDS011;9297;47.258;11.362;2024-03-08T10:20:14;3.30;;;1.73;;
5604;SDS011;9297;47.258;11.362;2024-03-08T10:22:42;1.80;;;1.70;;
5604;SDS011;9297;47.258;11.362;2024-03-08T10:25:22;2.47;;;2.13;;
5604;SDS011;9297;47.258;11.362;2024-03-08T10:27:50;2.33;;;2.03;;
5604;SDS011;9297;47.258;11.362;2024-03-08T10:30:17;1.67;;;1.50;;
5604;SDS011;9297;47.258;11.362;2024-03-08T10:32:45;3.07;;;1.90;;
5604;SDS011;9297;47.258;11.362;2024-03-08T10:35:12;2.27;;;2.07;;
5604;SDS011;9297;47.258;11.362;2024-03-08T10:37:44;2.60;;;1.27;;
5604;SDS011;9297;47.258;11.362;2024-03-08T10:40:15;2.60;;;1.57;;
5604;SDS011;9297;47.258;11.362;2024-03-08T10:42:47;2.77;;;1.90;;
5604;SDS011;9297;47.258;11.362;2024-03-08T10:45:19;3.37;;;2.00;;
5604;SDS011;9297;47.258;11.362;2024-03-08T10:48:00;3.67;;;2.47;;
5604;SDS011;9297;47.258;11.362;2024-03-08T10:50:34;2.30;;;1.87;;
5604;SDS011;9297;47.258;11.362;2024-03-08T10:53:02;2.70;;;2.27;;
5604;SDS011;9297;47.258;11.362;2024-03-08T10:55:31;2.43;;;2.13;;
5604;SDS011;9297;47.258;11.362;2024-03-08T10:57:59;3.10;;;2.10;;
5604;SDS011;9297;47.258;11.362;2024-03-08T11:00:27;5.60;;;1.80;;
5604;SDS011;9297;47.258;11.362;2024-03-08T11:02:54;2.63;;;2.43;;
5604;SDS011;9297;47.258;11.362;2024-03-08T11:05:32;2.93;;;2.17;;
5604;SDS011;9297;47.258;11.362;2024-03-08T11:08:03;2.20;;;2.00;;
5604;SDS011;9297;47.258;11.362;2024-03-08T11:10:32;2.17;;;1.97;;
5604;SDS011;9297;47.258;11.362;2024-03-08T11:12:59;2.90;;;2.20;;
5604;SDS011;9297;47.258;11.362;2024-03-08T11:15:26;3.37;;;1.97;;
5604;SDS011;9297;47.258;11.362;2024-03-08T11:17:58;2.20;;;1.90;;
5604;SDS011;9297;47.258;11.362;2024-03-08T11:20:26;2.40;;;1.80;;
5604;SDS011;9297;47.258;11.362;2024-03-08T11:23:00;1.70;;;1.60;;
5604;SDS011;9297;47.258;11.362;2024-03-08T11:25:33;3.43;;;2.10;;
5604;SDS011;9297;47.258;11.362;2024-03-08T11:28:14;5.37;;;1.60;;
5604;SDS011;9297;47.258;11.362;2024-03-08T11:30:44;3.73;;;1.50;;
5604;SDS011;9297;47.258;11.362;2024-03-08T11:33:12;1.67;;;1.37;;
5604;SDS011;9297;47.258;11.362;2024-03-08T11:35:39;3.53;;;1.50;;
5604;SDS011;9297;47.258;11.362;2024-03-08T11:38:09;1.40;;;1.30;;
5604;SDS011;9297;47.258;11.362;2024-03-08T11:40:36;2.17;;;1.27;;
5604;SDS011;9297;47.258;11.362;2024-03-08T11:43:03;1.57;;;1.47;;
5604;SDS011;9297;47.258;11.362;2024-03-08T11:45:30;3.13;;;1.40;;
5604;SDS011;9297;47.258;11.362;2024-03-08T11:47:57;2.23;;;1.20;;
5604;SDS011;9297;47.258;11.362;2024-03-08T11:50:26;2.50;;;1.10;;
5604;SDS011;9297;47.258;11.362;2024-03-08T11:52:53;2.90;;;1.60;;
5604;SDS011;9297;47.258;11.362;2024-03-08T11:55:27;3.70;;;1.70;;
5604;SDS011;9297;47.258;11.362;2024-03-08T11:57:59;1.43;;;1.07;;
5604;SDS011;9297;47.258;11.362;2024-03-08T12:00:27;1.70;;;1.60;;
5604;SDS011;9297;47.258;11.362;2024-03-08T12:03:04;2.03;;;0.93;;
5604;SDS011;9297;47.258;11.362;2024-03-08T12:05:32;1.33;;;1.10;;
5604;SDS011;9297;47.258;11.362;2024-03-08T12:08:00;2.97;;;1.17;;
5604;SDS011;9297;47.258;11.362;2024-03-08T12:10:28;1.43;;;1.00;;
5604;SDS011;9297;47.258;11.362;2024-03-08T12:12:57;2.53;;;1.30;;
5604;SDS011;9297;47.258;11.362;2024-03-08T12:15:25;1.80;;;1.30;;
5604;SDS011;9297;47.258;11.362;2024-03-08T12:17:53;2.73;;;1.10;;
5604;SDS011;9297;47.258;11.362;2024-03-08T12:20:21;0.97;;;0.97;;
5604;SDS011;9297;47.258;11.362;2024-03-08T12:22:53;1.60;;;1.00;;
5604;SDS011;9297;47.258;11.362;2024-03-08T12:25:20;2.73;;;0.97;;
5604;SDS011;9297;47.258;11.362;2024-03-08T12:27:49;3.03;;;0.93;;
5604;SDS011;9297;47.258;11.362;2024-03-08T12:30:21;1.13;;;0.90;;
5604;SDS011;9297;47.258;11.362;2024-03-08T12:32:51;0.70;;;0.70;;
5604;SDS011;9297;47.258;11.362;2024-03-08T12:35:20;2.40;;;0.60;;
5604;SDS011;9297;47.258;11.362;2024-03-08T12:37:48;0.93;;;0.80;;
5604;SDS011;9297;47.258;11.362;2024-03-08T12:40:16;0.67;;;0.67;;
5604;SDS011;9297;47.258;11.362;2024-03-08T12:42:43;0.93;;;0.70;;
5604;SDS011;9297;47.258;11.362;2024-03-08T12:45:11;0.80;;;0.60;;
5604;SDS011;9297;47.258;11.362;2024-03-08T12:47:39;0.60;;;0.60;;
5604;SDS011;9297;47.258;11.362;2024-03-08T12:50:06;0.67;;;0.67;;
5604;SDS011;9297;47.258;11.362;2024-03-08T12:52:33;0.63;;;0.63;;
5604;SDS011;9297;47.258;11.362;2024-03-08T12:55:03;0.60;;;0.60;;
5604;SDS011;9297;47.258;11.362;2024-03-08T12:57:33;0.73;;;0.57;;
5604;SDS011;9297;47.258;11.362;2024-03-08T13:00:02;1.00;;;0.80;;
5604;SDS011;9297;47.258;11.362;2024-03-08T13:02:31;3.67;;;1.97;;
5604;SDS011;9297;47.258;11.362;2024-03-08T13:04:58;4.70;;;1.97;;
5604;SDS011;9297;47.258;11.362;2024-03-08T13:07:25;1.27;;;1.03;;
5604;SDS011;9297;47.258;11.362;2024-03-08T13:09:56;6.73;;;2.80;;
5604;SDS011;9297;47.258;11.362;2024-03-08T13:12:23;1.00;;;0.97;;
5604;SDS011;9297;47.258;11.362;2024-03-08T13:14:50;8.87;;;3.03;;
5604;SDS011;9297;47.258;11.362;2024-03-08T13:17:26;1.57;;;1.00;;
5604;SDS011;9297;47.258;11.362;2024-03-08T13:19:54;0.60;;;0.60;;
5604;SDS011;9297;47.258;11.362;2024-03-08T13:22:22;4.47;;;1.37;;
5604;SDS011;9297;47.258;11.362;2024-03-08T13:24:49;4.90;;;2.83;;
5604;SDS011;9297;47.258;11.362;2024-03-08T13:27:19;0.80;;;0.80;;
5604;SDS011;9297;47.258;11.362;2024-03-08T13:29:46;0.80;;;0.80;;
5604;SDS011;9297;47.258;11.362;2024-03-08T13:32:14;0.80;;;0.80;;
5604;SDS011;9297;47.258;11.362;2024-03-08T13:34:41;0.80;;;0.80;;
5604;SDS011;9297;47.258;11.362;2024-03-08T13:37:10;0.90;;;0.90;;
5604;SDS011;9297;47.258;11.362;2024-03-08T13:39:37;0.97;;;0.93;;
5604;SDS011;9297;47.258;11.362;2024-03-08T13:42:04;1.90;;;1.20;;
5604;SDS011;9297;47.258;11.362;2024-03-08T13:44:31;2.13;;;1.23;;
5604;SDS011;9297;47.258;11.362;2024-03-08T13:46:58;2.87;;;1.67;;
5604;SDS011;9297;47.258;11.362;2024-03-08T13:49:25;0.77;;;0.77;;
5604;SDS011;9297;47.258;11.362;2024-03-08T13:51:53;2.10;;;1.63;;
5604;SDS011;9297;47.258;11.362;2024-03-08T13:54:21;2.73;;;1.03;;
5604;SDS011;9297;47.258;11.362;2024-03-08T13:56:51;1.13;;;1.10;;
5604;SDS011;9297;47.258;11.362;2024-03-08T13:59:18;1.53;;;1.43;;
5604;SDS011;9297;47.258;11.362;2024-03-08T14:01:45;1.27;;;0.93;;
5604;SDS011;9297;47.258;11.362;2024-03-08T14:04:13;0.60;;;0.60;;
5604;SDS011;9297;47.258;11.362;2024-03-08T14:06:45;1.67;;;0.87;;
5604;SDS011;9297;47.258;11.362;2024-03-08T14:09:16;1.60;;;1.20;;
5604;SDS011;9297;47.258;11.362;2024-03-08T14:11:45;0.80;;;0.80;;
5604;SDS011;9297;47.258;11.362;2024-03-08T14:14:12;1.07;;;0.97;;
5604;SDS011;9297;47.258;11.362;2024-03-08T14:16:40;2.53;;;1.30;;
5604;SDS011;9297;47.258;11.362;2024-03-08T14:19:10;143.23;;;23.93;;
5604;SDS011;9297;47.258;11.362;2024-03-08T14:21:36;1.43;;;0.90;;
5604;SDS011;9297;47.258;11.362;2024-03-08T14:24:04;1.07;;;0.90;;
5604;SDS011;9297;47.258;11.362;2024-03-08T14:26:31;2.37;;;1.10;;
5604;SDS011;9297;47.258;11.362;2024-03-08T14:29:00;1.10;;;1.00;;
5604;SDS011;9297;47.258;11.362;2024-03-08T14:31:27;2.50;;;1.07;;
5604;SDS011;9297;47.258;11.362;2024-03-08T14:33:54;6.53;;;1.10;;
5604;SDS011;9297;47.258;11.362;2024-03-08T14:36:26;2.13;;;0.90;;
5604;SDS011;9297;47.258;11.362;2024-03-08T14:38:53;1.63;;;0.67;;
5604;SDS011;9297;47.258;11.362;2024-03-08T14:41:26;1.03;;;0.90;;
5604;SDS011;9297;47.258;11.362;2024-03-08T14:43:55;1.10;;;1.00;;
5604;SDS011;9297;47.258;11.362;2024-03-08T14:46:29;0.83;;;0.83;;
5604;SDS011;9297;47.258;11.362;2024-03-08T14:48:56;1.77;;;0.90;;
5604;SDS011;9297;47.258;11.362;2024-03-08T14:51:23;1.33;;;1.00;;
5604;SDS011;9297;47.258;11.362;2024-03-08T14:53:53;1.13;;;0.90;;
5604;SDS011;9297;47.258;11.362;2024-03-08T14:56:20;1.47;;;1.03;;
5604;SDS011;9297;47.258;11.362;2024-03-08T14:58:47;0.80;;;0.80;;
5604;SDS011;9297;47.258;11.362;2024-03-08T15:01:17;0.97;;;0.97;;
5604;SDS011;9297;47.258;11.362;2024-03-08T15:03:45;1.30;;;1.30;;
5604;SDS011;9297;47.258;11.362;2024-03-08T15:06:15;1.30;;;1.30;;
5604;SDS011;9297;47.258;11.362;2024-03-08T15:08:44;1.07;;;0.97;;
5604;SDS011;9297;47.258;11.362;2024-03-08T15:11:11;1.13;;;1.10;;
5604;SDS011;9297;47.258;11.362;2024-03-08T15:13:39;1.27;;;1.27;;
5604;SDS011;9297;47.258;11.362;2024-03-08T15:16:08;1.30;;;1.20;;
5604;SDS011;9297;47.258;11.362;2024-03-08T15:18:38;1.17;;;1.10;;
5604;SDS011;9297;47.258;11.362;2024-03-08T15:21:09;1.10;;;1.10;;
5604;SDS011;9297;47.258;11.362;2024-03-08T15:23:36;1.07;;;1.00;;
5604;SDS011;9297;47.258;11.362;2024-03-08T15:26:03;1.40;;;1.00;;
5604;SDS011;9297;47.258;11.362;2024-03-08T15:28:30;1.30;;;1.27;;
5604;SDS011;9297;47.258;11.362;2024-03-08T15:30:58;1.03;;;1.03;;
5604;SDS011;9297;47.258;11.362;2024-03-08T15:33:25;0.80;;;0.80;;
5604;SDS011;9297;47.258;11.362;2024-03-08T15:35:52;1.30;;;1.20;;
5604;SDS011;9297;47.258;11.362;2024-03-08T15:38:21;1.30;;;1.20;;
5604;SDS011;9297;47.258;11.362;2024-03-08T15:40:48;1.23;;;1.13;;
5604;SDS011;9297;47.258;11.362;2024-03-08T15:43:15;0.90;;;0.90;;
5604;SDS011;9297;47.258;11.362;2024-03-08T15:45:42;2.73;;;1.23;;
5604;SDS011;9297;47.258;11.362;2024-03-08T15:48:10;1.17;;;1.07;;
5604;SDS011;9297;47.258;11.362;2024-03-08T15:50:38;1.23;;;1.03;;
5604;SDS011;9297;47.258;11.362;2024-03-08T15:53:05;1.30;;;1.20;;
5604;SDS011;9297;47.258;11.362;2024-03-08T15:55:35;2.37;;;1.23;;
5604;SDS011;9297;47.258;11.362;2024-03-08T15:58:02;1.10;;;1.10;;
5604;SDS011;9297;47.258;11.362;2024-03-08T16:00:29;1.00;;;1.00;;
5604;SDS011;9297;47.258;11.362;2024-03-08T16:02:56;1.63;;;1.20;;
5604;SDS011;9297;47.258;11.362;2024-03-08T16:05:23;2.10;;;1.52;;
5604;SDS011;9297;47.258;11.362;2024-03-08T16:07:50;3.17;;;2.73;;
5604;SDS011;9297;47.258;11.362;2024-03-08T16:10:17;12.97;;;5.90;;
5604;SDS011;9297;47.258;11.362;2024-03-08T16:12:46;4.53;;;2.03;;
5604;SDS011;9297;47.258;11.362;2024-03-08T16:15:13;2.17;;;1.93;;
5604;SDS011;9297;47.258;11.362;2024-03-08T16:17:40;1.83;;;1.40;;
5604;SDS011;9297;47.258;11.362;2024-03-08T16:20:07;1.38;;;1.27;;
5604;SDS011;9297;47.258;11.362;2024-03-08T16:22:34;1.20;;;1.20;;
5604;SDS011;9297;47.258;11.362;2024-03-08T16:25:01;1.13;;;1.13;;
5604;SDS011;9297;47.258;11.362;2024-03-08T16:27:29;1.47;;;1.43;;
5604;SDS011;9297;47.258;11.362;2024-03-08T16:29:57;1.17;;;1.10;;
5604;SDS011;9297;47.258;11.362;2024-03-08T16:32:24;1.90;;;1.03;;
5604;SDS011;9297;47.258;11.362;2024-03-08T16:34:51;2.67;;;1.20;;
5604;SDS011;9297;47.258;11.362;2024-03-08T16:37:18;1.93;;;1.20;;
5604;SDS011;9297;47.258;11.362;2024-03-08T16:39:45;1.63;;;1.53;;
5604;SDS011;9297;47.258;11.362;2024-03-08T16:42:12;2.07;;;0.90;;
5604;SDS011;9297;47.258;11.362;2024-03-08T16:44:39;1.40;;;1.20;;
5604;SDS011;9297;47.258;11.362;2024-03-08T16:47:07;0.97;;;0.97;;
5604;SDS011;9297;47.258;11.362;2024-03-08T16:49:34;1.63;;;1.53;;
5604;SDS011;9297;47.258;11.362;2024-03-08T16:52:01;1.10;;;1.10;;
5604;SDS011;9297;47.258;11.362;2024-03-08T16:54:28;2.20;;;1.13;;
5604;SDS011;9297;47.258;11.362;2024-03-08T16:57:12;1.57;;;1.47;;
5604;SDS011;9297;47.258;11.362;2024-03-08T16:59:39;1.20;;;1.20;;
5604;SDS011;9297;47.258;11.362;2024-03-08T17:02:09;2.20;;;1.80;;
5604;SDS011;9297;47.258;11.362;2024-03-08T17:04:36;2.00;;;1.90;;
5604;SDS011;9297;47.258;11.362;2024-03-08T17:07:03;1.53;;;1.43;;
5604;SDS011;9297;47.258;11.362;2024-03-08T17:09:30;1.60;;;1.50;;
5604;SDS011;9297;47.258;11.362;2024-03-08T17:11:59;2.77;;;1.93;;
5604;SDS011;9297;47.258;11.362;2024-03-08T17:14:29;2.03;;;1.93;;
5604;SDS011;9297;47.258;11.362;2024-03-08T17:16:56;1.83;;;1.73;;
5604;SDS011;9297;47.258;11.362;2024-03-08T17:19:25;2.63;;;1.77;;
5604;SDS011;9297;47.258;11.362;2024-03-08T17:21:52;1.17;;;1.17;;
5604;SDS011;9297;47.258;11.362;2024-03-08T17:24:24;1.60;;;1.50;;
5604;SDS011;9297;47.258;11.362;2024-03-08T17:26:51;1.70;;;1.60;;
5604;SDS011;9297;47.258;11.362;2024-03-08T17:29:21;2.03;;;1.77;;
5604;SDS011;9297;47.258;11.362;2024-03-08T17:31:48;1.70;;;1.60;;